sensor_id;sensor_type;location;lat;lon;timestamp;temperature;humidity
51853;DHT22;37894;53.172;6.598;2023-08-21T00:00:03;14.90;99.90
51853;DHT22;37894;53.172;6.598;2023-08-21T00:02:29;14.70;99.90
51853;DHT22;37894;53.172;6.598;2023-08-21T00:07:22;14.70;99.90
51853;DHT22;37894;53.172;6.598;2023-08-21T00:09:48;14.80;99.90
51853;DHT22;37894;53.172;6.598;2023-08-21T00:12:14;13.90;99.90
51853;DHT22;37894;53.172;6.598;2023-08-21T00:14:39;14.40;99.90
51853;DHT22;37894;53.172;6.598;2023-08-21T00:17:05;14.60;99.90
51853;DHT22;37894;53.172;6.598;2023-08-21T00:19:32;14.60;99.90
51853;DHT22;37894;53.172;6.598;2023-08-21T00:21:58;14.60;99.90
51853;DHT22;37894;53.172;6.598;2023-08-21T00:24:23;14.90;99.90
51853;DHT22;37894;53.172;6.598;2023-08-21T00:29:15;14.60;99.90
51853;DHT22;37894;53.172;6.598;2023-08-21T00:31:41;15.10;99.90
51853;DHT22;37894;53.172;6.598;2023-08-21T00:34:07;14.80;99.90
51853;DHT22;37894;53.172;6.598;2023-08-21T00:36:32;14.10;99.90
51853;DHT22;37894;53.172;6.598;2023-08-21T00:38:58;14.40;99.90
51853;DHT22;37894;53.172;6.598;2023-08-21T00:41:24;14.10;99.90
51853;DHT22;37894;53.172;6.598;2023-08-21T00:43:50;13.90;99.90
51853;DHT22;37894;53.172;6.598;2023-08-21T00:46:15;14.00;99.90
51853;DHT22;37894;53.172;6.598;2023-08-21T00:48:43;13.80;99.90
51853;DHT22;37894;53.172;6.598;2023-08-21T00:51:10;14.60;99.90
51853;DHT22;37894;53.172;6.598;2023-08-21T00:53:36;14.10;99.90
51853;DHT22;37894;53.172;6.598;2023-08-21T00:56:02;14.40;99.90
51853;DHT22;37894;53.172;6.598;2023-08-21T00:58:28;15.60;99.90
51853;DHT22;37894;53.172;6.598;2023-08-21T01:00:53;14.20;99.90
51853;DHT22;37894;53.172;6.598;2023-08-21T01:03:19;14.30;99.90
51853;DHT22;37894;53.172;6.598;2023-08-21T01:05:45;14.10;99.90
51853;DHT22;37894;53.172;6.598;2023-08-21T01:11:22;14.10;99.90
51853;DHT22;37894;53.172;6.598;2023-08-21T01:16:24;14.10;99.90
51853;DHT22;37894;53.172;6.598;2023-08-21T01:18:52;14.20;99.90
51853;DHT22;37894;53.172;6.598;2023-08-21T01:21:20;14.00;99.90
51853;DHT22;37894;53.172;6.598;2023-08-21T01:23:45;13.30;99.90
51853;DHT22;37894;53.172;6.598;2023-08-21T01:26:11;14.20;99.90
51853;DHT22;37894;53.172;6.598;2023-08-21T01:28:37;13.50;99.90
51853;DHT22;37894;53.172;6.598;2023-08-21T01:31:08;14.80;99.90
51853;DHT22;37894;53.172;6.598;2023-08-21T01:33:40;13.60;99.90
51853;DHT22;37894;53.172;6.598;2023-08-21T01:36:08;13.90;99.90
51853;DHT22;37894;53.172;6.598;2023-08-21T01:38:34;13.80;99.90
51853;DHT22;37894;53.172;6.598;2023-08-21T01:41:01;13.90;99.90
51853;DHT22;37894;53.172;6.598;2023-08-21T01:43:27;13.90;99.90
51853;DHT22;37894;53.172;6.598;2023-08-21T01:45:53;13.70;99.90
51853;DHT22;37894;53.172;6.598;2023-08-21T01:48:19;13.60;99.90
51853;DHT22;37894;53.172;6.598;2023-08-21T01:50:45;13.50;99.90
51853;DHT22;37894;53.172;6.598;2023-08-21T01:53:11;13.80;99.90
51853;DHT22;37894;53.172;6.598;2023-08-21T01:55:36;13.80;99.90
51853;DHT22;37894;53.172;6.598;2023-08-21T01:58:02;13.70;99.90
51853;DHT22;37894;53.172;6.598;2023-08-21T02:00:28;13.70;99.90
51853;DHT22;37894;53.172;6.598;2023-08-21T02:02:53;14.40;99.90
51853;DHT22;37894;53.172;6.598;2023-08-21T02:05:19;13.80;99.90
51853;DHT22;37894;53.172;6.598;2023-08-21T02:07:45;13.70;99.90
51853;DHT22;37894;53.172;6.598;2023-08-21T02:10:11;13.60;99.90
51853;DHT22;37894;53.172;6.598;2023-08-21T02:12:37;12.80;99.90
51853;DHT22;37894;53.172;6.598;2023-08-21T02:17:30;13.90;99.90
51853;DHT22;37894;53.172;6.598;2023-08-21T02:19:55;12.80;99.90
51853;DHT22;37894;53.172;6.598;2023-08-21T02:22:21;13.60;99.90
51853;DHT22;37894;53.172;6.598;2023-08-21T02:24:47;12.90;99.90
51853;DHT22;37894;53.172;6.598;2023-08-21T02:29:38;13.60;99.90
51853;DHT22;37894;53.172;6.598;2023-08-21T02:32:04;13.40;99.90
51853;DHT22;37894;53.172;6.598;2023-08-21T02:34:30;14.30;99.90
51853;DHT22;37894;53.172;6.598;2023-08-21T02:36:56;13.40;99.90
51853;DHT22;37894;53.172;6.598;2023-08-21T02:39:21;13.30;99.90
51853;DHT22;37894;53.172;6.598;2023-08-21T02:41:47;13.00;99.90
51853;DHT22;37894;53.172;6.598;2023-08-21T02:44:13;14.00;99.90
51853;DHT22;37894;53.172;6.598;2023-08-21T02:46:38;13.30;99.90
51853;DHT22;37894;53.172;6.598;2023-08-21T02:49:04;13.50;99.90
51853;DHT22;37894;53.172;6.598;2023-08-21T02:51:30;13.40;99.90
51853;DHT22;37894;53.172;6.598;2023-08-21T02:53:56;13.80;99.90
51853;DHT22;37894;53.172;6.598;2023-08-21T02:56:21;13.30;99.90
51853;DHT22;37894;53.172;6.598;2023-08-21T02:58:47;12.70;99.90
51853;DHT22;37894;53.172;6.598;2023-08-21T03:01:13;13.40;99.90
51853;DHT22;37894;53.172;6.598;2023-08-21T03:03:39;13.20;99.90
51853;DHT22;37894;53.172;6.598;2023-08-21T03:06:05;13.50;99.90
51853;DHT22;37894;53.172;6.598;2023-08-21T03:08:31;13.30;99.90
51853;DHT22;37894;53.172;6.598;2023-08-21T03:10:56;13.20;99.90
51853;DHT22;37894;53.172;6.598;2023-08-21T03:13:22;13.40;99.90
51853;DHT22;37894;53.172;6.598;2023-08-21T03:18:14;13.40;99.90
51853;DHT22;37894;53.172;6.598;2023-08-21T03:20:44;13.10;99.90
51853;DHT22;37894;53.172;6.598;2023-08-21T03:23:11;13.20;99.90
51853;DHT22;37894;53.172;6.598;2023-08-21T03:25:36;13.00;99.90
51853;DHT22;37894;53.172;6.598;2023-08-21T03:28:02;13.50;99.90
51853;DHT22;37894;53.172;6.598;2023-08-21T03:30:28;12.90;99.90
51853;DHT22;37894;53.172;6.598;2023-08-21T03:32:54;12.40;99.90
51853;DHT22;37894;53.172;6.598;2023-08-21T03:35:19;13.10;99.90
51853;DHT22;37894;53.172;6.598;2023-08-21T03:37:45;13.30;99.90
51853;DHT22;37894;53.172;6.598;2023-08-21T03:40:11;13.50;99.90
51853;DHT22;37894;53.172;6.598;2023-08-21T03:42:36;13.50;99.90
51853;DHT22;37894;53.172;6.598;2023-08-21T03:45:03;14.10;99.90
51853;DHT22;37894;53.172;6.598;2023-08-21T03:47:30;12.50;99.90
51853;DHT22;37894;53.172;6.598;2023-08-21T03:49:56;13.30;99.90
51853;DHT22;37894;53.172;6.598;2023-08-21T03:52:22;13.30;99.90
51853;DHT22;37894;53.172;6.598;2023-08-21T03:54:47;13.40;99.90
51853;DHT22;37894;53.172;6.598;2023-08-21T03:57:13;12.40;99.90
51853;DHT22;37894;53.172;6.598;2023-08-21T03:59:39;13.00;99.90
51853;DHT22;37894;53.172;6.598;2023-08-21T04:02:05;13.00;99.90
51853;DHT22;37894;53.172;6.598;2023-08-21T04:04:30;12.90;99.90
51853;DHT22;37894;53.172;6.598;2023-08-21T04:09:22;12.70;99.90
51853;DHT22;37894;53.172;6.598;2023-08-21T04:11:48;13.20;99.90
51853;DHT22;37894;53.172;6.598;2023-08-21T04:14:13;12.80;99.90
51853;DHT22;37894;53.172;6.598;2023-08-21T04:16:39;12.90;99.90
51853;DHT22;37894;53.172;6.598;2023-08-21T04:19:06;12.90;99.90
51853;DHT22;37894;53.172;6.598;2023-08-21T04:21:31;12.50;99.90
51853;DHT22;37894;53.172;6.598;2023-08-21T04:23:59;12.60;99.90
51853;DHT22;37894;53.172;6.598;2023-08-21T04:26:25;12.80;99.90
51853;DHT22;37894;53.172;6.598;2023-08-21T04:31:17;12.70;99.90
51853;DHT22;37894;53.172;6.598;2023-08-21T04:33:43;12.80;99.90
51853;DHT22;37894;53.172;6.598;2023-08-21T04:36:15;12.40;99.90
51853;DHT22;37894;53.172;6.598;2023-08-21T04:38:41;12.50;99.90
51853;DHT22;37894;53.172;6.598;2023-08-21T04:41:07;12.10;99.90
51853;DHT22;37894;53.172;6.598;2023-08-21T04:45:59;12.50;99.90
51853;DHT22;37894;53.172;6.598;2023-08-21T04:48:25;12.70;99.90
51853;DHT22;37894;53.172;6.598;2023-08-21T04:50:50;12.80;99.90
51853;DHT22;37894;53.172;6.598;2023-08-21T04:53:16;12.80;99.90
51853;DHT22;37894;53.172;6.598;2023-08-21T04:55:42;12.30;99.90
51853;DHT22;37894;53.172;6.598;2023-08-21T04:58:08;12.20;99.90
51853;DHT22;37894;53.172;6.598;2023-08-21T05:03:01;12.60;99.90
51853;DHT22;37894;53.172;6.598;2023-08-21T05:07:53;12.70;99.90
51853;DHT22;37894;53.172;6.598;2023-08-21T05:10:19;12.60;99.90
51853;DHT22;37894;53.172;6.598;2023-08-21T05:12:46;13.30;99.90
51853;DHT22;37894;53.172;6.598;2023-08-21T05:15:12;12.60;99.90
51853;DHT22;37894;53.172;6.598;2023-08-21T05:17:37;12.10;99.90
51853;DHT22;37894;53.172;6.598;2023-08-21T05:20:04;12.80;99.90
51853;DHT22;37894;53.172;6.598;2023-08-21T05:22:30;13.80;99.90
51853;DHT22;37894;53.172;6.598;2023-08-21T05:24:55;12.90;99.90
51853;DHT22;37894;53.172;6.598;2023-08-21T05:27:21;13.80;99.90
51853;DHT22;37894;53.172;6.598;2023-08-21T05:29:47;13.20;99.90
51853;DHT22;37894;53.172;6.598;2023-08-21T05:32:14;13.20;99.90
51853;DHT22;37894;53.172;6.598;2023-08-21T05:34:40;13.20;99.90
51853;DHT22;37894;53.172;6.598;2023-08-21T05:37:06;13.50;99.90
51853;DHT22;37894;53.172;6.598;2023-08-21T05:39:32;13.60;99.90
51853;DHT22;37894;53.172;6.598;2023-08-21T05:44:25;13.80;99.90
51853;DHT22;37894;53.172;6.598;2023-08-21T05:49:17;13.40;99.90
51853;DHT22;37894;53.172;6.598;2023-08-21T05:51:42;13.70;99.90
51853;DHT22;37894;53.172;6.598;2023-08-21T05:54:08;13.20;99.90
51853;DHT22;37894;53.172;6.598;2023-08-21T05:56:34;14.40;99.90
51853;DHT22;37894;53.172;6.598;2023-08-21T05:58:59;13.80;99.90
51853;DHT22;37894;53.172;6.598;2023-08-21T06:03:51;14.20;99.90
51853;DHT22;37894;53.172;6.598;2023-08-21T06:08:43;14.50;99.90
51853;DHT22;37894;53.172;6.598;2023-08-21T06:11:09;14.70;99.90
51853;DHT22;37894;53.172;6.598;2023-08-21T06:13:35;15.00;99.90
51853;DHT22;37894;53.172;6.598;2023-08-21T06:16:00;14.90;99.90
51853;DHT22;37894;53.172;6.598;2023-08-21T06:18:26;15.20;99.90
51853;DHT22;37894;53.172;6.598;2023-08-21T06:20:52;15.60;99.90
51853;DHT22;37894;53.172;6.598;2023-08-21T06:23:20;15.50;99.90
51853;DHT22;37894;53.172;6.598;2023-08-21T06:25:48;15.90;99.90
51853;DHT22;37894;53.172;6.598;2023-08-21T06:28:14;15.30;99.90
51853;DHT22;37894;53.172;6.598;2023-08-21T06:30:40;16.50;99.90
51853;DHT22;37894;53.172;6.598;2023-08-21T06:33:05;15.50;99.90
51853;DHT22;37894;53.172;6.598;2023-08-21T06:35:31;15.70;99.90
51853;DHT22;37894;53.172;6.598;2023-08-21T06:37:57;15.80;99.90
51853;DHT22;37894;53.172;6.598;2023-08-21T06:40:22;16.00;99.90
51853;DHT22;37894;53.172;6.598;2023-08-21T06:42:48;16.00;99.90
51853;DHT22;37894;53.172;6.598;2023-08-21T06:45:18;16.10;99.90
51853;DHT22;37894;53.172;6.598;2023-08-21T06:47:43;16.50;99.90
51853;DHT22;37894;53.172;6.598;2023-08-21T06:50:09;18.90;99.90
51853;DHT22;37894;53.172;6.598;2023-08-21T06:52:35;17.00;99.90
51853;DHT22;37894;53.172;6.598;2023-08-21T06:55:01;16.70;99.90
51853;DHT22;37894;53.172;6.598;2023-08-21T06:57:27;16.20;99.90
51853;DHT22;37894;53.172;6.598;2023-08-21T06:59:53;17.20;99.90
51853;DHT22;37894;53.172;6.598;2023-08-21T07:02:19;17.00;99.90
51853;DHT22;37894;53.172;6.598;2023-08-21T07:04:44;17.60;99.90
51853;DHT22;37894;53.172;6.598;2023-08-21T07:07:10;17.20;99.90
51853;DHT22;37894;53.172;6.598;2023-08-21T07:09:36;18.70;99.90
51853;DHT22;37894;53.172;6.598;2023-08-21T07:12:01;17.50;99.90
51853;DHT22;37894;53.172;6.598;2023-08-21T07:14:28;17.80;99.90
51853;DHT22;37894;53.172;6.598;2023-08-21T07:16:54;17.80;99.90
51853;DHT22;37894;53.172;6.598;2023-08-21T07:19:19;17.90;99.90
51853;DHT22;37894;53.172;6.598;2023-08-21T07:21:45;18.00;99.90
51853;DHT22;37894;53.172;6.598;2023-08-21T07:24:11;18.00;99.90
51853;DHT22;37894;53.172;6.598;2023-08-21T07:26:36;18.20;99.90
51853;DHT22;37894;53.172;6.598;2023-08-21T07:29:02;18.20;99.90
51853;DHT22;37894;53.172;6.598;2023-08-21T07:31:30;18.70;99.90
51853;DHT22;37894;53.172;6.598;2023-08-21T07:33:56;18.40;99.90
51853;DHT22;37894;53.172;6.598;2023-08-21T07:36:21;18.70;99.90
51853;DHT22;37894;53.172;6.598;2023-08-21T07:38:47;19.00;99.90
51853;DHT22;37894;53.172;6.598;2023-08-21T07:41:13;18.70;99.90
51853;DHT22;37894;53.172;6.598;2023-08-21T07:43:43;18.80;99.90
51853;DHT22;37894;53.172;6.598;2023-08-21T07:46:11;18.90;99.90
51853;DHT22;37894;53.172;6.598;2023-08-21T07:48:39;19.40;99.90
51853;DHT22;37894;53.172;6.598;2023-08-21T07:51:04;19.10;99.90
51853;DHT22;37894;53.172;6.598;2023-08-21T07:53:30;19.30;99.90
51853;DHT22;37894;53.172;6.598;2023-08-21T07:56:00;19.40;99.90
51853;DHT22;37894;53.172;6.598;2023-08-21T07:58:26;19.50;99.90
51853;DHT22;37894;53.172;6.598;2023-08-21T08:00:52;18.70;99.90
51853;DHT22;37894;53.172;6.598;2023-08-21T08:03:18;19.70;99.90
51853;DHT22;37894;53.172;6.598;2023-08-21T08:05:44;19.60;99.90
51853;DHT22;37894;53.172;6.598;2023-08-21T08:08:10;20.20;99.90
51853;DHT22;37894;53.172;6.598;2023-08-21T08:10:39;20.10;99.90
51853;DHT22;37894;53.172;6.598;2023-08-21T08:13:06;20.20;99.90
51853;DHT22;37894;53.172;6.598;2023-08-21T08:15:32;20.30;99.90
51853;DHT22;37894;53.172;6.598;2023-08-21T08:17:59;20.40;99.90
51853;DHT22;37894;53.172;6.598;2023-08-21T08:20:25;20.60;99.90
51853;DHT22;37894;53.172;6.598;2023-08-21T08:22:51;20.70;99.90
51853;DHT22;37894;53.172;6.598;2023-08-21T08:25:16;20.80;99.90
51853;DHT22;37894;53.172;6.598;2023-08-21T08:27:43;20.90;99.90
51853;DHT22;37894;53.172;6.598;2023-08-21T08:30:10;21.00;99.90
51853;DHT22;37894;53.172;6.598;2023-08-21T08:32:36;21.10;99.90
51853;DHT22;37894;53.172;6.598;2023-08-21T08:35:02;21.30;99.90
51853;DHT22;37894;53.172;6.598;2023-08-21T08:37:28;21.40;99.90
51853;DHT22;37894;53.172;6.598;2023-08-21T08:39:53;21.50;99.90
51853;DHT22;37894;53.172;6.598;2023-08-21T08:42:19;21.60;99.90
51853;DHT22;37894;53.172;6.598;2023-08-21T08:44:45;21.70;99.90
51853;DHT22;37894;53.172;6.598;2023-08-21T08:47:11;21.80;99.90
51853;DHT22;37894;53.172;6.598;2023-08-21T08:49:37;21.90;99.90
51853;DHT22;37894;53.172;6.598;2023-08-21T08:52:04;22.00;99.90
51853;DHT22;37894;53.172;6.598;2023-08-21T08:54:30;22.00;99.90
51853;DHT22;37894;53.172;6.598;2023-08-21T08:56:56;22.10;99.90
51853;DHT22;37894;53.172;6.598;2023-08-21T08:59:22;22.20;99.90
51853;DHT22;37894;53.172;6.598;2023-08-21T09:01:48;22.30;99.90
51853;DHT22;37894;53.172;6.598;2023-08-21T09:04:14;22.40;99.90
51853;DHT22;37894;53.172;6.598;2023-08-21T09:06:40;22.40;99.90
51853;DHT22;37894;53.172;6.598;2023-08-21T09:09:07;22.50;99.90
51853;DHT22;37894;53.172;6.598;2023-08-21T09:11:33;22.60;99.90
51853;DHT22;37894;53.172;6.598;2023-08-21T09:13:59;22.70;99.90
51853;DHT22;37894;53.172;6.598;2023-08-21T09:16:26;22.70;99.90
51853;DHT22;37894;53.172;6.598;2023-08-21T09:18:56;23.10;99.90
51853;DHT22;37894;53.172;6.598;2023-08-21T09:21:23;22.90;99.90
51853;DHT22;37894;53.172;6.598;2023-08-21T09:24:01;23.00;99.90
51853;DHT22;37894;53.172;6.598;2023-08-21T09:26:30;23.10;99.90
51853;DHT22;37894;53.172;6.598;2023-08-21T09:29:03;23.10;99.90
51853;DHT22;37894;53.172;6.598;2023-08-21T09:31:31;23.30;99.90
51853;DHT22;37894;53.172;6.598;2023-08-21T09:34:02;23.20;99.90
51853;DHT22;37894;53.172;6.598;2023-08-21T09:36:31;23.40;99.90
51853;DHT22;37894;53.172;6.598;2023-08-21T09:38:57;23.30;99.90
51853;DHT22;37894;53.172;6.598;2023-08-21T09:41:23;23.40;99.90
51853;DHT22;37894;53.172;6.598;2023-08-21T09:43:49;23.50;99.90
51853;DHT22;37894;53.172;6.598;2023-08-21T09:46:16;23.60;99.90
51853;DHT22;37894;53.172;6.598;2023-08-21T09:48:44;23.70;99.90
51853;DHT22;37894;53.172;6.598;2023-08-21T09:51:11;23.80;99.90
51853;DHT22;37894;53.172;6.598;2023-08-21T09:53:37;23.90;99.90
51853;DHT22;37894;53.172;6.598;2023-08-21T09:56:03;23.90;99.90
51853;DHT22;37894;53.172;6.598;2023-08-21T09:58:29;24.00;99.90
51853;DHT22;37894;53.172;6.598;2023-08-21T10:00:59;24.10;99.90
51853;DHT22;37894;53.172;6.598;2023-08-21T10:03:25;24.20;99.90
51853;DHT22;37894;53.172;6.598;2023-08-21T10:05:55;24.30;99.90
51853;DHT22;37894;53.172;6.598;2023-08-21T10:08:24;24.30;99.90
51853;DHT22;37894;53.172;6.598;2023-08-21T10:10:51;24.40;99.90
51853;DHT22;37894;53.172;6.598;2023-08-21T10:13:17;24.40;99.90
51853;DHT22;37894;53.172;6.598;2023-08-21T10:15:44;24.40;99.90
51853;DHT22;37894;53.172;6.598;2023-08-21T10:18:23;24.40;99.90
51853;DHT22;37894;53.172;6.598;2023-08-21T10:20:50;24.60;99.90
51853;DHT22;37894;53.172;6.598;2023-08-21T10:23:30;24.70;99.90
51853;DHT22;37894;53.172;6.598;2023-08-21T10:26:01;24.80;99.90
51853;DHT22;37894;53.172;6.598;2023-08-21T10:28:53;24.80;99.90
51853;DHT22;37894;53.172;6.598;2023-08-21T10:34:18;24.90;99.90
51853;DHT22;37894;53.172;6.598;2023-08-21T10:39:22;25.10;99.90
51853;DHT22;37894;53.172;6.598;2023-08-21T10:41:58;25.30;99.90
51853;DHT22;37894;53.172;6.598;2023-08-21T10:47:31;25.30;99.90
51853;DHT22;37894;53.172;6.598;2023-08-21T10:49:59;25.50;99.90
51853;DHT22;37894;53.172;6.598;2023-08-21T10:52:27;25.40;99.90
51853;DHT22;37894;53.172;6.598;2023-08-21T10:54:57;25.50;99.90
51853;DHT22;37894;53.172;6.598;2023-08-21T10:57:25;25.50;99.90
51853;DHT22;37894;53.172;6.598;2023-08-21T11:00:04;25.60;99.90
51853;DHT22;37894;53.172;6.598;2023-08-21T11:02:31;25.60;99.40
51853;DHT22;37894;53.172;6.598;2023-08-21T11:04:59;25.80;99.90
51853;DHT22;37894;53.172;6.598;2023-08-21T11:07:25;25.90;99.60
51853;DHT22;37894;53.172;6.598;2023-08-21T11:09:52;26.00;99.90
51853;DHT22;37894;53.172;6.598;2023-08-21T11:12:22;26.10;99.20
51853;DHT22;37894;53.172;6.598;2023-08-21T11:14:49;26.10;99.90
51853;DHT22;37894;53.172;6.598;2023-08-21T11:17:15;26.30;99.90
51853;DHT22;37894;53.172;6.598;2023-08-21T11:19:42;26.40;99.90
51853;DHT22;37894;53.172;6.598;2023-08-21T11:22:08;26.60;99.90
51853;DHT22;37894;53.172;6.598;2023-08-21T11:27:06;26.50;99.80
51853;DHT22;37894;53.172;6.598;2023-08-21T11:29:37;26.40;99.40
51853;DHT22;37894;53.172;6.598;2023-08-21T11:32:03;26.50;99.90
51853;DHT22;37894;53.172;6.598;2023-08-21T11:34:32;26.70;99.90
51853;DHT22;37894;53.172;6.598;2023-08-21T11:36:58;26.90;99.90
51853;DHT22;37894;53.172;6.598;2023-08-21T11:39:24;26.90;99.30
51853;DHT22;37894;53.172;6.598;2023-08-21T11:41:57;26.80;99.20
51853;DHT22;37894;53.172;6.598;2023-08-21T11:44:24;26.70;99.20
51853;DHT22;37894;53.172;6.598;2023-08-21T11:46:53;26.60;99.20
51853;DHT22;37894;53.172;6.598;2023-08-21T11:49:19;26.60;98.90
51853;DHT22;37894;53.172;6.598;2023-08-21T11:51:48;26.60;98.50
51853;DHT22;37894;53.172;6.598;2023-08-21T11:54:13;26.70;98.90
51853;DHT22;37894;53.172;6.598;2023-08-21T11:56:39;26.00;98.00
51853;DHT22;37894;53.172;6.598;2023-08-21T11:59:08;26.60;98.20
51853;DHT22;37894;53.172;6.598;2023-08-21T12:01:33;26.50;98.60
51853;DHT22;37894;53.172;6.598;2023-08-21T12:03:59;26.50;99.00
51853;DHT22;37894;53.172;6.598;2023-08-21T12:06:25;26.70;99.10
51853;DHT22;37894;53.172;6.598;2023-08-21T12:08:52;26.90;99.70
51853;DHT22;37894;53.172;6.598;2023-08-21T12:11:18;27.20;99.30
51853;DHT22;37894;53.172;6.598;2023-08-21T12:13:44;27.40;96.10
51853;DHT22;37894;53.172;6.598;2023-08-21T12:16:09;27.40;94.90
51853;DHT22;37894;53.172;6.598;2023-08-21T12:18:35;27.60;97.10
51853;DHT22;37894;53.172;6.598;2023-08-21T12:21:01;27.90;97.10
51853;DHT22;37894;53.172;6.598;2023-08-21T12:23:26;28.00;95.90
51853;DHT22;37894;53.172;6.598;2023-08-21T12:25:52;28.00;94.50
51853;DHT22;37894;53.172;6.598;2023-08-21T12:28:18;28.10;95.00
51853;DHT22;37894;53.172;6.598;2023-08-21T12:30:43;28.20;93.90
51853;DHT22;37894;53.172;6.598;2023-08-21T12:33:09;28.00;93.60
51853;DHT22;37894;53.172;6.598;2023-08-21T12:35:35;28.10;94.10
51853;DHT22;37894;53.172;6.598;2023-08-21T12:38:00;28.00;94.00
51853;DHT22;37894;53.172;6.598;2023-08-21T12:40:31;27.90;94.00
51853;DHT22;37894;53.172;6.598;2023-08-21T12:42:57;27.90;95.40
51853;DHT22;37894;53.172;6.598;2023-08-21T12:45:23;27.90;95.20
51853;DHT22;37894;53.172;6.598;2023-08-21T12:47:48;28.00;95.20
51853;DHT22;37894;53.172;6.598;2023-08-21T12:50:14;28.20;95.50
51853;DHT22;37894;53.172;6.598;2023-08-21T12:52:40;28.40;94.80
51853;DHT22;37894;53.172;6.598;2023-08-21T12:55:07;28.60;94.40
51853;DHT22;37894;53.172;6.598;2023-08-21T12:57:33;28.60;93.10
51853;DHT22;37894;53.172;6.598;2023-08-21T12:59:58;28.60;94.00
51853;DHT22;37894;53.172;6.598;2023-08-21T13:02:24;28.90;93.90
51853;DHT22;37894;53.172;6.598;2023-08-21T13:04:52;29.20;93.80
51853;DHT22;37894;53.172;6.598;2023-08-21T13:07:18;29.40;92.50
51853;DHT22;37894;53.172;6.598;2023-08-21T13:09:43;29.40;90.60
51853;DHT22;37894;53.172;6.598;2023-08-21T13:12:09;29.40;91.30
51853;DHT22;37894;53.172;6.598;2023-08-21T13:14:35;29.80;91.00
51853;DHT22;37894;53.172;6.598;2023-08-21T13:17:00;30.00;90.50
51853;DHT22;37894;53.172;6.598;2023-08-21T13:19:26;30.10;90.00
51853;DHT22;37894;53.172;6.598;2023-08-21T13:21:52;30.30;91.00
51853;DHT22;37894;53.172;6.598;2023-08-21T13:24:19;30.30;90.80
51853;DHT22;37894;53.172;6.598;2023-08-21T13:26:45;30.10;89.80
51853;DHT22;37894;53.172;6.598;2023-08-21T13:29:11;29.90;89.70
51853;DHT22;37894;53.172;6.598;2023-08-21T13:31:36;30.10;90.80
51853;DHT22;37894;53.172;6.598;2023-08-21T13:34:02;30.50;90.90
51853;DHT22;37894;53.172;6.598;2023-08-21T13:36:28;30.90;90.20
51853;DHT22;37894;53.172;6.598;2023-08-21T13:38:54;31.10;87.70
51853;DHT22;37894;53.172;6.598;2023-08-21T13:41:20;31.00;84.00
51853;DHT22;37894;53.172;6.598;2023-08-21T13:43:46;31.10;83.60
51853;DHT22;37894;53.172;6.598;2023-08-21T13:46:11;31.30;84.00
51853;DHT22;37894;53.172;6.598;2023-08-21T13:48:37;31.50;82.30
51853;DHT22;37894;53.172;6.598;2023-08-21T13:51:03;31.50;82.10
51853;DHT22;37894;53.172;6.598;2023-08-21T13:53:29;31.40;81.40
51853;DHT22;37894;53.172;6.598;2023-08-21T13:55:54;31.40;80.30
51853;DHT22;37894;53.172;6.598;2023-08-21T13:58:20;31.20;81.00
51853;DHT22;37894;53.172;6.598;2023-08-21T14:00:46;31.10;80.80
51853;DHT22;37894;53.172;6.598;2023-08-21T14:03:12;31.00;80.80
51853;DHT22;37894;53.172;6.598;2023-08-21T14:05:38;31.10;80.80
51853;DHT22;37894;53.172;6.598;2023-08-21T14:08:04;31.10;81.60
51853;DHT22;37894;53.172;6.598;2023-08-21T14:10:30;31.40;80.60
51853;DHT22;37894;53.172;6.598;2023-08-21T14:12:56;31.30;79.90
51853;DHT22;37894;53.172;6.598;2023-08-21T14:15:23;30.80;76.70
51853;DHT22;37894;53.172;6.598;2023-08-21T14:17:48;30.20;78.70
51853;DHT22;37894;53.172;6.598;2023-08-21T14:20:15;29.80;79.70
51853;DHT22;37894;53.172;6.598;2023-08-21T14:22:41;29.60;80.90
51853;DHT22;37894;53.172;6.598;2023-08-21T14:25:07;29.10;81.60
51853;DHT22;37894;53.172;6.598;2023-08-21T14:27:34;28.70;82.50
51853;DHT22;37894;53.172;6.598;2023-08-21T14:30:00;28.60;83.40
51853;DHT22;37894;53.172;6.598;2023-08-21T14:32:26;28.40;83.20
51853;DHT22;37894;53.172;6.598;2023-08-21T14:34:52;28.20;83.50
51853;DHT22;37894;53.172;6.598;2023-08-21T14:37:20;28.00;83.30
51853;DHT22;37894;53.172;6.598;2023-08-21T14:39:46;27.80;83.40
51853;DHT22;37894;53.172;6.598;2023-08-21T14:42:12;27.70;83.30
51853;DHT22;37894;53.172;6.598;2023-08-21T14:44:38;27.50;83.50
51853;DHT22;37894;53.172;6.598;2023-08-21T14:47:04;27.40;84.40
51853;DHT22;37894;53.172;6.598;2023-08-21T14:49:29;27.30;86.30
51853;DHT22;37894;53.172;6.598;2023-08-21T14:51:55;27.30;87.00
51853;DHT22;37894;53.172;6.598;2023-08-21T14:54:21;27.20;88.10
51853;DHT22;37894;53.172;6.598;2023-08-21T14:56:47;27.00;86.50
51853;DHT22;37894;53.172;6.598;2023-08-21T14:59:14;26.80;84.90
51853;DHT22;37894;53.172;6.598;2023-08-21T15:01:40;26.80;86.20
51853;DHT22;37894;53.172;6.598;2023-08-21T15:04:06;26.80;86.70
51853;DHT22;37894;53.172;6.598;2023-08-21T15:06:34;26.80;86.50
51853;DHT22;37894;53.172;6.598;2023-08-21T15:09:00;26.70;87.20
51853;DHT22;37894;53.172;6.598;2023-08-21T15:11:26;26.70;85.90
51853;DHT22;37894;53.172;6.598;2023-08-21T15:13:52;26.70;86.00
51853;DHT22;37894;53.172;6.598;2023-08-21T15:16:17;26.70;85.90
51853;DHT22;37894;53.172;6.598;2023-08-21T15:18:43;26.60;86.00
51853;DHT22;37894;53.172;6.598;2023-08-21T15:21:09;26.50;85.70
51853;DHT22;37894;53.172;6.598;2023-08-21T15:23:34;26.00;87.30
51853;DHT22;37894;53.172;6.598;2023-08-21T15:26:00;26.30;85.30
51853;DHT22;37894;53.172;6.598;2023-08-21T15:28:26;26.30;84.90
51853;DHT22;37894;53.172;6.598;2023-08-21T15:30:51;26.20;86.60
51853;DHT22;37894;53.172;6.598;2023-08-21T15:33:17;26.20;87.70
51853;DHT22;37894;53.172;6.598;2023-08-21T15:35:43;26.20;88.50
51853;DHT22;37894;53.172;6.598;2023-08-21T15:38:08;26.20;88.50
51853;DHT22;37894;53.172;6.598;2023-08-21T15:40:34;27.60;90.30
51853;DHT22;37894;53.172;6.598;2023-08-21T15:43:01;26.10;88.10
51853;DHT22;37894;53.172;6.598;2023-08-21T15:45:29;26.20;88.40
51853;DHT22;37894;53.172;6.598;2023-08-21T15:47:55;26.10;89.00
51853;DHT22;37894;53.172;6.598;2023-08-21T15:50:21;26.10;89.80
51853;DHT22;37894;53.172;6.598;2023-08-21T15:52:47;26.10;90.20
51853;DHT22;37894;53.172;6.598;2023-08-21T15:55:13;26.10;90.60
51853;DHT22;37894;53.172;6.598;2023-08-21T15:57:39;26.00;91.00
51853;DHT22;37894;53.172;6.598;2023-08-21T16:00:06;26.00;91.90
51853;DHT22;37894;53.172;6.598;2023-08-21T16:02:32;26.00;92.50
51853;DHT22;37894;53.172;6.598;2023-08-21T16:04:58;25.10;94.30
51853;DHT22;37894;53.172;6.598;2023-08-21T16:07:24;25.80;93.80
51853;DHT22;37894;53.172;6.598;2023-08-21T16:09:49;25.80;94.30
51853;DHT22;37894;53.172;6.598;2023-08-21T16:12:15;25.70;94.30
51853;DHT22;37894;53.172;6.598;2023-08-21T16:14:41;25.70;94.50